sensor_id;sensor_type;location;lat;lon;timestamp;P1;durP1;ratioP1;P2;durP2;ratioP2
16029;SDS011;34770;49.272;11.070;2023-03-23T00:00:50;5.00;;;3.50;;
16029;SDS011;34770;49.272;11.070;2023-03-23T00:03:16;5.72;;;4.13;;
16029;SDS011;34770;49.272;11.070;2023-03-23T00:05:42;4.82;;;4.00;;
16029;SDS011;34770;49.272;11.070;2023-03-23T00:08:15;7.03;;;3.70;;
16029;SDS011;34770;49.272;11.070;2023-03-23T00:10:49;7.03;;;4.20;;
16029;SDS011;34770;49.272;11.070;2023-03-23T00:13:22;7.03;;;4.13;;
16029;SDS011;34770;49.272;11.070;2023-03-23T00:15:51;7.57;;;6.05;;
16029;SDS011;34770;49.272;11.070;2023-03-23T00:18:17;5.22;;;4.72;;
16029;SDS011;34770;49.272;11.070;2023-03-23T00:20:53;5.82;;;3.60;;
16029;SDS011;34770;49.272;11.070;2023-03-23T00:23:22;6.07;;;3.58;;
16029;SDS011;34770;49.272;11.070;2023-03-23T00:25:53;5.07;;;4.13;;
16029;SDS011;34770;49.272;11.070;2023-03-23T00:28:23;4.35;;;3.95;;
16029;SDS011;34770;49.272;11.070;2023-03-23T00:30:55;5.68;;;3.78;;
16029;SDS011;34770;49.272;11.070;2023-03-23T00:33:26;5.32;;;4.38;;
16029;SDS011;34770;49.272;11.070;2023-03-23T00:35:53;5.47;;;3.72;;
16029;SDS011;34770;49.272;11.070;2023-03-23T00:38:20;4.40;;;3.72;;
16029;SDS011;34770;49.272;11.070;2023-03-23T00:40:47;7.20;;;4.10;;
16029;SDS011;34770;49.272;11.070;2023-03-23T00:43:16;3.78;;;3.35;;
16029;SDS011;34770;49.272;11.070;2023-03-23T00:45:43;4.22;;;3.83;;
16029;SDS011;34770;49.272;11.070;2023-03-23T00:48:14;4.93;;;4.25;;
16029;SDS011;34770;49.272;11.070;2023-03-23T00:50:39;4.50;;;4.10;;
16029;SDS011;34770;49.272;11.070;2023-03-23T00:53:05;4.60;;;4.10;;
16029;SDS011;34770;49.272;11.070;2023-03-23T00:55:32;4.97;;;4.28;;
16029;SDS011;34770;49.272;11.070;2023-03-23T00:57:58;3.88;;;3.38;;
16029;SDS011;34770;49.272;11.070;2023-03-23T01:00:24;4.05;;;3.63;;
16029;SDS011;34770;49.272;11.070;2023-03-23T01:02:49;5.20;;;4.70;;
16029;SDS011;34770;49.272;11.070;2023-03-23T01:05:18;4.50;;;4.10;;
16029;SDS011;34770;49.272;11.070;2023-03-23T01:07:43;5.65;;;3.78;;
16029;SDS011;34770;49.272;11.070;2023-03-23T01:10:09;4.55;;;3.60;;
16029;SDS011;34770;49.272;11.070;2023-03-23T01:12:38;4.57;;;3.83;;
16029;SDS011;34770;49.272;11.070;2023-03-23T01:15:04;4.30;;;3.65;;
16029;SDS011;34770;49.272;11.070;2023-03-23T01:17:31;3.70;;;3.40;;
16029;SDS011;34770;49.272;11.070;2023-03-23T01:19:56;5.38;;;4.40;;
16029;SDS011;34770;49.272;11.070;2023-03-23T01:22:22;4.93;;;3.63;;
16029;SDS011;34770;49.272;11.070;2023-03-23T01:24:47;5.10;;;4.22;;
16029;SDS011;34770;49.272;11.070;2023-03-23T01:27:13;4.30;;;3.90;;
16029;SDS011;34770;49.272;11.070;2023-03-23T01:29:39;5.30;;;4.00;;
16029;SDS011;34770;49.272;11.070;2023-03-23T01:32:05;4.82;;;4.32;;
16029;SDS011;34770;49.272;11.070;2023-03-23T01:34:30;3.75;;;3.35;;
16029;SDS011;34770;49.272;11.070;2023-03-23T01:36:56;4.70;;;3.97;;
16029;SDS011;34770;49.272;11.070;2023-03-23T01:39:22;8.60;;;3.80;;
16029;SDS011;34770;49.272;11.070;2023-03-23T01:41:47;5.88;;;3.50;;
16029;SDS011;34770;49.272;11.070;2023-03-23T01:46:42;6.95;;;3.60;;
16029;SDS011;34770;49.272;11.070;2023-03-23T01:49:19;4.57;;;4.10;;
16029;SDS011;34770;49.272;11.070;2023-03-23T01:51:50;4.22;;;3.55;;
16029;SDS011;34770;49.272;11.070;2023-03-23T01:54:21;4.47;;;3.35;;
16029;SDS011;34770;49.272;11.070;2023-03-23T01:56:58;4.45;;;4.05;;
16029;SDS011;34770;49.272;11.070;2023-03-23T01:59:27;4.57;;;3.53;;
16029;SDS011;34770;49.272;11.070;2023-03-23T02:01:54;4.65;;;3.78;;
16029;SDS011;34770;49.272;11.070;2023-03-23T02:04:20;4.38;;;3.97;;
16029;SDS011;34770;49.272;11.070;2023-03-23T02:06:48;5.60;;;3.70;;
16029;SDS011;34770;49.272;11.070;2023-03-23T02:09:15;4.13;;;3.63;;
16029;SDS011;34770;49.272;11.070;2023-03-23T02:11:42;3.50;;;3.17;;
16029;SDS011;34770;49.272;11.070;2023-03-23T02:14:08;5.30;;;3.40;;
16029;SDS011;34770;49.272;11.070;2023-03-23T02:16:48;5.53;;;3.70;;
16029;SDS011;34770;49.272;11.070;2023-03-23T02:31:22;3.80;;;3.45;;
16029;SDS011;34770;49.272;11.070;2023-03-23T02:34:08;5.82;;;4.68;;
16029;SDS011;34770;49.272;11.070;2023-03-23T02:36:37;3.65;;;3.30;;
16029;SDS011;34770;49.272;11.070;2023-03-23T02:39:12;4.63;;;3.05;;
16029;SDS011;34770;49.272;11.070;2023-03-23T02:42:02;4.60;;;3.63;;
16029;SDS011;34770;49.272;11.070;2023-03-23T02:44:31;7.80;;;4.30;;
16029;SDS011;34770;49.272;11.070;2023-03-23T02:47:00;3.67;;;3.30;;
16029;SDS011;34770;49.272;11.070;2023-03-23T02:49:31;5.15;;;3.47;;
16029;SDS011;34770;49.272;11.070;2023-03-23T02:52:00;4.35;;;3.40;;
16029;SDS011;34770;49.272;11.070;2023-03-23T02:54:29;6.05;;;3.33;;
16029;SDS011;34770;49.272;11.070;2023-03-23T02:56:55;6.38;;;3.78;;
16029;SDS011;34770;49.272;11.070;2023-03-23T02:59:22;4.82;;;3.25;;
16029;SDS011;34770;49.272;11.070;2023-03-23T03:01:48;4.60;;;3.72;;
16029;SDS011;34770;49.272;11.070;2023-03-23T03:04:21;5.32;;;3.10;;
16029;SDS011;34770;49.272;11.070;2023-03-23T03:15:17;3.20;;;2.83;;
16029;SDS011;34770;49.272;11.070;2023-03-23T03:17:53;3.35;;;2.80;;
16029;SDS011;34770;49.272;11.070;2023-03-23T03:20:25;3.38;;;3.08;;
16029;SDS011;34770;49.272;11.070;2023-03-23T03:22:52;2.75;;;2.55;;
16029;SDS011;34770;49.272;11.070;2023-03-23T03:25:20;2.85;;;2.65;;
16029;SDS011;34770;49.272;11.070;2023-03-23T03:27:48;2.88;;;2.58;;
16029;SDS011;34770;49.272;11.070;2023-03-23T03:30:18;2.60;;;2.40;;
16029;SDS011;34770;49.272;11.070;2023-03-23T03:32:49;4.78;;;2.40;;
16029;SDS011;34770;49.272;11.070;2023-03-23T03:35:19;3.13;;;2.83;;
16029;SDS011;34770;49.272;11.070;2023-03-23T03:37:49;8.32;;;3.50;;
16029;SDS011;34770;49.272;11.070;2023-03-23T03:40:16;4.40;;;3.50;;
16029;SDS011;34770;49.272;11.070;2023-03-23T03:42:44;7.53;;;3.95;;
16029;SDS011;34770;49.272;11.070;2023-03-23T03:45:14;6.97;;;2.90;;
16029;SDS011;34770;49.272;11.070;2023-03-23T03:47:43;5.35;;;3.35;;
16029;SDS011;34770;49.272;11.070;2023-03-23T03:50:09;4.30;;;2.63;;
16029;SDS011;34770;49.272;11.070;2023-03-23T03:52:35;3.60;;;2.65;;
16029;SDS011;34770;49.272;11.070;2023-03-23T03:55:01;2.88;;;2.50;;
16029;SDS011;34770;49.272;11.070;2023-03-23T03:57:27;3.15;;;2.90;;
16029;SDS011;34770;49.272;11.070;2023-03-23T03:59:52;3.90;;;3.38;;
16029;SDS011;34770;49.272;11.070;2023-03-23T04:02:18;3.03;;;2.70;;
16029;SDS011;34770;49.272;11.070;2023-03-23T04:04:48;3.45;;;3.08;;
16029;SDS011;34770;49.272;11.070;2023-03-23T04:07:14;6.78;;;3.35;;
16029;SDS011;34770;49.272;11.070;2023-03-23T04:09:44;4.28;;;3.15;;
16029;SDS011;34770;49.272;11.070;2023-03-23T04:12:13;4.07;;;2.65;;
16029;SDS011;34770;49.272;11.070;2023-03-23T04:14:39;3.03;;;2.72;;
16029;SDS011;34770;49.272;11.070;2023-03-23T04:17:05;4.15;;;2.95;;
16029;SDS011;34770;49.272;11.070;2023-03-23T04:19:34;3.78;;;2.88;;
16029;SDS011;34770;49.272;11.070;2023-03-23T04:22:02;2.67;;;2.38;;
16029;SDS011;34770;49.272;11.070;2023-03-23T04:24:28;5.43;;;3.10;;
16029;SDS011;34770;49.272;11.070;2023-03-23T04:26:56;2.70;;;2.50;;
16029;SDS011;34770;49.272;11.070;2023-03-23T04:29:21;2.80;;;2.60;;
16029;SDS011;34770;49.272;11.070;2023-03-23T04:31:47;5.93;;;3.05;;
16029;SDS011;34770;49.272;11.070;2023-03-23T04:34:15;4.38;;;2.78;;
16029;SDS011;34770;49.272;11.070;2023-03-23T04:36:41;5.55;;;2.67;;
16029;SDS011;34770;49.272;11.070;2023-03-23T04:39:07;3.78;;;3.00;;
16029;SDS011;34770;49.272;11.070;2023-03-23T04:41:37;3.65;;;3.03;;
16029;SDS011;34770;49.272;11.070;2023-03-23T04:44:03;3.15;;;2.70;;
16029;SDS011;34770;49.272;11.070;2023-03-23T04:46:30;3.40;;;3.10;;
16029;SDS011;34770;49.272;11.070;2023-03-23T04:48:56;4.03;;;3.63;;
16029;SDS011;34770;49.272;11.070;2023-03-23T04:51:26;5.22;;;3.15;;
16029;SDS011;34770;49.272;11.070;2023-03-23T04:53:53;3.90;;;2.83;;
16029;SDS011;34770;49.272;11.070;2023-03-23T04:56:19;3.00;;;2.47;;
16029;SDS011;34770;49.272;11.070;2023-03-23T04:58:45;2.88;;;2.50;;
16029;SDS011;34770;49.272;11.070;2023-03-23T05:01:11;3.97;;;3.00;;
16029;SDS011;34770;49.272;11.070;2023-03-23T05:03:42;4.80;;;3.40;;
16029;SDS011;34770;49.272;11.070;2023-03-23T05:06:09;3.03;;;2.83;;
16029;SDS011;34770;49.272;11.070;2023-03-23T05:08:35;2.88;;;2.60;;
16029;SDS011;34770;49.272;11.070;2023-03-23T05:11:04;3.70;;;2.53;;
16029;SDS011;34770;49.272;11.070;2023-03-23T05:13:30;5.70;;;2.42;;
16029;SDS011;34770;49.272;11.070;2023-03-23T05:15:57;3.20;;;2.90;;
16029;SDS011;34770;49.272;11.070;2023-03-23T05:18:22;4.28;;;2.65;;
16029;SDS011;34770;49.272;11.070;2023-03-23T05:20:48;5.65;;;3.03;;
16029;SDS011;34770;49.272;11.070;2023-03-23T05:23:14;3.30;;;2.35;;
16029;SDS011;34770;49.272;11.070;2023-03-23T05:25:40;3.25;;;2.40;;
16029;SDS011;34770;49.272;11.070;2023-03-23T05:28:06;3.15;;;2.47;;
16029;SDS011;34770;49.272;11.070;2023-03-23T05:30:33;3.03;;;2.40;;
16029;SDS011;34770;49.272;11.070;2023-03-23T05:33:00;2.85;;;2.60;;
16029;SDS011;34770;49.272;11.070;2023-03-23T05:35:26;3.55;;;2.72;;
16029;SDS011;34770;49.272;11.070;2023-03-23T05:37:52;5.72;;;2.60;;
16029;SDS011;34770;49.272;11.070;2023-03-23T05:40:18;2.78;;;2.50;;
16029;SDS011;34770;49.272;11.070;2023-03-23T05:42:45;3.63;;;3.00;;
16029;SDS011;34770;49.272;11.070;2023-03-23T05:45:12;3.35;;;3.05;;
16029;SDS011;34770;49.272;11.070;2023-03-23T05:47:39;5.63;;;3.40;;
16029;SDS011;34770;49.272;11.070;2023-03-23T05:50:06;3.05;;;2.75;;
16029;SDS011;34770;49.272;11.070;2023-03-23T05:52:34;2.63;;;2.42;;
16029;SDS011;34770;49.272;11.070;2023-03-23T05:55:00;4.78;;;2.80;;
16029;SDS011;34770;49.272;11.070;2023-03-23T05:57:26;3.92;;;3.00;;
16029;SDS011;34770;49.272;11.070;2023-03-23T05:59:53;4.18;;;2.60;;
16029;SDS011;34770;49.272;11.070;2023-03-23T06:02:18;5.50;;;3.33;;
16029;SDS011;34770;49.272;11.070;2023-03-23T06:04:44;4.32;;;3.10;;
16029;SDS011;34770;49.272;11.070;2023-03-23T06:07:09;4.28;;;3.22;;
16029;SDS011;34770;49.272;11.070;2023-03-23T06:09:39;4.82;;;2.97;;
16029;SDS011;34770;49.272;11.070;2023-03-23T06:12:06;5.05;;;3.33;;
16029;SDS011;34770;49.272;11.070;2023-03-23T06:14:32;3.90;;;3.10;;
16029;SDS011;34770;49.272;11.070;2023-03-23T06:16:58;4.30;;;3.70;;
16029;SDS011;34770;49.272;11.070;2023-03-23T06:19:24;4.25;;;3.42;;
16029;SDS011;34770;49.272;11.070;2023-03-23T06:21:52;4.85;;;3.40;;
16029;SDS011;34770;49.272;11.070;2023-03-23T06:24:19;4.80;;;3.53;;
16029;SDS011;34770;49.272;11.070;2023-03-23T06:26:44;4.97;;;3.72;;
16029;SDS011;34770;49.272;11.070;2023-03-23T06:29:10;4.10;;;3.30;;
16029;SDS011;34770;49.272;11.070;2023-03-23T06:31:43;5.75;;;3.88;;
16029;SDS011;34770;49.272;11.070;2023-03-23T06:34:13;4.95;;;4.18;;
16029;SDS011;34770;49.272;11.070;2023-03-23T06:36:39;4.05;;;3.65;;
16029;SDS011;34770;49.272;11.070;2023-03-23T06:39:05;4.63;;;4.13;;
16029;SDS011;34770;49.272;11.070;2023-03-23T06:41:32;5.32;;;3.05;;
16029;SDS011;34770;49.272;11.070;2023-03-23T06:43:58;5.18;;;3.25;;
16029;SDS011;34770;49.272;11.070;2023-03-23T06:46:25;3.88;;;3.47;;
16029;SDS011;34770;49.272;11.070;2023-03-23T06:48:50;5.35;;;3.13;;
16029;SDS011;34770;49.272;11.070;2023-03-23T06:51:17;4.07;;;3.25;;
16029;SDS011;34770;49.272;11.070;2023-03-23T06:53:43;2.88;;;2.58;;
16029;SDS011;34770;49.272;11.070;2023-03-23T06:56:08;3.45;;;3.13;;
16029;SDS011;34770;49.272;11.070;2023-03-23T06:58:35;6.22;;;4.18;;
16029;SDS011;34770;49.272;11.070;2023-03-23T07:01:01;3.47;;;3.13;;
16029;SDS011;34770;49.272;11.070;2023-03-23T07:03:27;4.80;;;4.30;;
16029;SDS011;34770;49.272;11.070;2023-03-23T07:05:53;4.53;;;3.72;;
16029;SDS011;34770;49.272;11.070;2023-03-23T07:08:20;7.47;;;5.70;;
16029;SDS011;34770;49.272;11.070;2023-03-23T07:10:46;3.75;;;3.38;;
16029;SDS011;34770;49.272;11.070;2023-03-23T07:13:12;4.05;;;3.63;;
16029;SDS011;34770;49.272;11.070;2023-03-23T07:15:38;5.43;;;3.17;;
16029;SDS011;34770;49.272;11.070;2023-03-23T07:18:04;5.10;;;3.65;;
16029;SDS011;34770;49.272;11.070;2023-03-23T07:20:30;5.32;;;3.55;;
16029;SDS011;34770;49.272;11.070;2023-03-23T07:22:56;8.60;;;5.32;;
16029;SDS011;34770;49.272;11.070;2023-03-23T07:25:21;13.15;;;9.90;;
16029;SDS011;34770;49.272;11.070;2023-03-23T07:27:47;7.80;;;4.75;;
16029;SDS011;34770;49.272;11.070;2023-03-23T07:30:13;7.30;;;5.00;;
16029;SDS011;34770;49.272;11.070;2023-03-23T07:32:39;3.85;;;3.38;;
16029;SDS011;34770;49.272;11.070;2023-03-23T07:35:06;4.07;;;3.05;;
16029;SDS011;34770;49.272;11.070;2023-03-23T07:37:34;3.47;;;3.17;;
16029;SDS011;34770;49.272;11.070;2023-03-23T07:40:01;3.70;;;3.30;;
16029;SDS011;34770;49.272;11.070;2023-03-23T07:42:39;3.70;;;3.33;;
16029;SDS011;34770;49.272;11.070;2023-03-23T07:45:06;4.20;;;3.30;;
16029;SDS011;34770;49.272;11.070;2023-03-23T07:47:32;3.88;;;3.10;;
16029;SDS011;34770;49.272;11.070;2023-03-23T07:49:58;5.63;;;3.55;;
16029;SDS011;34770;49.272;11.070;2023-03-23T07:52:23;5.45;;;3.17;;
16029;SDS011;34770;49.272;11.070;2023-03-23T07:54:49;4.35;;;2.92;;
16029;SDS011;34770;49.272;11.070;2023-03-23T07:57:14;3.90;;;3.30;;
16029;SDS011;34770;49.272;11.070;2023-03-23T07:59:40;3.45;;;2.97;;
16029;SDS011;34770;49.272;11.070;2023-03-23T08:02:07;4.97;;;4.03;;
16029;SDS011;34770;49.272;11.070;2023-03-23T08:04:34;4.55;;;2.85;;
16029;SDS011;34770;49.272;11.070;2023-03-23T08:07:02;6.15;;;3.17;;
16029;SDS011;34770;49.272;11.070;2023-03-23T08:09:29;4.50;;;3.00;;
16029;SDS011;34770;49.272;11.070;2023-03-23T08:11:55;3.22;;;2.92;;
16029;SDS011;34770;49.272;11.070;2023-03-23T08:14:20;3.90;;;2.65;;
16029;SDS011;34770;49.272;11.070;2023-03-23T08:16:46;3.58;;;3.15;;
16029;SDS011;34770;49.272;11.070;2023-03-23T08:19:13;5.63;;;4.50;;
16029;SDS011;34770;49.272;11.070;2023-03-23T08:21:38;10.25;;;3.85;;
16029;SDS011;34770;49.272;11.070;2023-03-23T08:24:04;3.83;;;3.20;;
16029;SDS011;34770;49.272;11.070;2023-03-23T08:26:30;4.20;;;2.88;;
16029;SDS011;34770;49.272;11.070;2023-03-23T08:28:56;5.40;;;3.60;;
16029;SDS011;34770;49.272;11.070;2023-03-23T08:31:22;3.03;;;2.72;;
16029;SDS011;34770;49.272;11.070;2023-03-23T08:33:48;3.97;;;3.35;;
16029;SDS011;34770;49.272;11.070;2023-03-23T08:36:14;4.55;;;3.35;;
16029;SDS011;34770;49.272;11.070;2023-03-23T08:38:40;6.40;;;3.67;;
16029;SDS011;34770;49.272;11.070;2023-03-23T08:41:06;7.35;;;3.30;;
16029;SDS011;34770;49.272;11.070;2023-03-23T08:43:32;4.05;;;2.95;;
16029;SDS011;34770;49.272;11.070;2023-03-23T08:45:59;4.80;;;4.30;;
16029;SDS011;34770;49.272;11.070;2023-03-23T08:48:26;9.48;;;6.43;;
16029;SDS011;34770;49.272;11.070;2023-03-23T08:50:52;7.10;;;5.97;;
16029;SDS011;34770;49.272;11.070;2023-03-23T08:53:18;5.20;;;4.40;;
16029;SDS011;34770;49.272;11.070;2023-03-23T08:55:45;5.50;;;4.60;;
16029;SDS011;34770;49.272;11.070;2023-03-23T08:58:12;5.88;;;3.63;;
16029;SDS011;34770;49.272;11.070;2023-03-23T09:00:37;6.50;;;5.00;;
16029;SDS011;34770;49.272;11.070;2023-03-23T09:03:04;5.07;;;3.35;;
16029;SDS011;34770;49.272;11.070;2023-03-23T09:05:29;6.15;;;3.65;;
16029;SDS011;34770;49.272;11.070;2023-03-23T09:07:56;4.18;;;2.97;;
16029;SDS011;34770;49.272;11.070;2023-03-23T09:10:26;4.75;;;3.72;;
16029;SDS011;34770;49.272;11.070;2023-03-23T09:12:53;5.18;;;3.33;;
16029;SDS011;34770;49.272;11.070;2023-03-23T09:15:19;4.63;;;3.53;;
16029;SDS011;34770;49.272;11.070;2023-03-23T09:17:46;3.03;;;2.80;;
16029;SDS011;34770;49.272;11.070;2023-03-23T09:20:13;5.43;;;4.03;;
16029;SDS011;34770;49.272;11.070;2023-03-23T09:22:41;4.95;;;3.75;;
16029;SDS011;34770;49.272;11.070;2023-03-23T09:25:13;3.67;;;3.00;;
16029;SDS011;34770;49.272;11.070;2023-03-23T09:27:40;6.25;;;3.83;;
16029;SDS011;34770;49.272;11.070;2023-03-23T09:30:07;8.05;;;4.07;;
16029;SDS011;34770;49.272;11.070;2023-03-23T09:32:35;6.25;;;3.70;;
16029;SDS011;34770;49.272;11.070;2023-03-23T09:35:01;3.60;;;2.67;;
16029;SDS011;34770;49.272;11.070;2023-03-23T09:37:28;3.90;;;2.75;;
16029;SDS011;34770;49.272;11.070;2023-03-23T09:39:54;3.20;;;2.50;;
16029;SDS011;34770;49.272;11.070;2023-03-23T09:50:25;5.00;;;4.13;;
16029;SDS011;34770;49.272;11.070;2023-03-23T09:53:01;3.50;;;2.83;;
16029;SDS011;34770;49.272;11.070;2023-03-23T09:55:32;4.47;;;3.92;;
16029;SDS011;34770;49.272;11.070;2023-03-23T09:58:09;6.47;;;3.40;;
16029;SDS011;34770;49.272;11.070;2023-03-23T10:00:51;5.15;;;3.33;;
16029;SDS011;34770;49.272;11.070;2023-03-23T10:03:22;8.85;;;3.63;;
16029;SDS011;34770;49.272;11.070;2023-03-23T10:05:53;4.45;;;2.95;;
16029;SDS011;34770;49.272;11.070;2023-03-23T10:08:23;7.55;;;2.97;;
16029;SDS011;34770;49.272;11.070;2023-03-23T10:11:09;7.28;;;3.05;;
16029;SDS011;34770;49.272;11.070;2023-03-23T10:16:15;2.75;;;2.47;;
16029;SDS011;34770;49.272;11.070;2023-03-23T10:21:42;2.75;;;2.30;;
16029;SDS011;34770;49.272;11.070;2023-03-23T10:24:15;2.95;;;2.33;;
16029;SDS011;34770;49.272;11.070;2023-03-23T10:29:30;4.15;;;2.10;;
16029;SDS011;34770;49.272;11.070;2023-03-23T10:32:03;3.17;;;1.92;;
16029;SDS011;34770;49.272;11.070;2023-03-23T10:37:08;3.20;;;2.33;;
16029;SDS011;34770;49.272;11.070;2023-03-23T10:39:53;4.53;;;2.78;;
16029;SDS011;34770;49.272;11.070;2023-03-23T10:44:53;4.65;;;2.35;;
16029;SDS011;34770;49.272;11.070;2023-03-23T10:47:21;1.85;;;1.65;;
16029;SDS011;34770;49.272;11.070;2023-03-23T10:49:51;1.90;;;1.70;;
16029;SDS011;34770;49.272;11.070;2023-03-23T10:55:07;2.10;;;1.90;;
16029;SDS011;34770;49.272;11.070;2023-03-23T10:57:37;5.03;;;1.73;;
16029;SDS011;34770;49.272;11.070;2023-03-23T11:02:59;1.90;;;1.67;;
16029;SDS011;34770;49.272;11.070;2023-03-23T11:08:16;2.22;;;1.70;;
16029;SDS011;34770;49.272;11.070;2023-03-23T11:13:16;4.75;;;1.88;;
16029;SDS011;34770;49.272;11.070;2023-03-23T11:15:44;3.55;;;1.77;;
16029;SDS011;34770;49.272;11.070;2023-03-23T11:18:12;3.33;;;1.67;;
16029;SDS011;34770;49.272;11.070;2023-03-23T11:20:44;1.80;;;1.70;;
16029;SDS011;34770;49.272;11.070;2023-03-23T11:26:14;2.72;;;1.88;;
16029;SDS011;34770;49.272;11.070;2023-03-23T11:28:44;2.40;;;2.20;;
16029;SDS011;34770;49.272;11.070;2023-03-23T11:31:15;1.40;;;1.30;;
16029;SDS011;34770;49.272;11.070;2023-03-23T11:33:47;3.10;;;1.85;;
16029;SDS011;34770;49.272;11.070;2023-03-23T11:36:17;3.70;;;2.33;;
16029;SDS011;34770;49.272;11.070;2023-03-23T11:38:43;2.97;;;2.00;;
16029;SDS011;34770;49.272;11.070;2023-03-23T11:41:16;2.70;;;1.90;;
16029;SDS011;34770;49.272;11.070;2023-03-23T11:43:45;2.13;;;1.95;;
16029;SDS011;34770;49.272;11.070;2023-03-23T11:46:33;2.88;;;2.00;;
16029;SDS011;34770;49.272;11.070;2023-03-23T11:49:15;4.03;;;2.30;;
16029;SDS011;34770;49.272;11.070;2023-03-23T11:52:51;2.05;;;1.85;;
16029;SDS011;34770;49.272;11.070;2023-03-23T11:55:51;2.60;;;2.20;;
16029;SDS011;34770;49.272;11.070;2023-03-23T11:58:09;2.22;;;1.67;;
16029;SDS011;34770;49.272;11.070;2023-03-23T12:00:40;1.85;;;1.75;;
16029;SDS011;34770;49.272;11.070;2023-03-23T12:12:04;1.92;;;1.75;;
16029;SDS011;34770;49.272;11.070;2023-03-23T12:31:11;1.60;;;1.50;;
16029;SDS011;34770;49.272;11.070;2023-03-23T12:36:47;1.67;;;1.58;;
16029;SDS011;34770;49.272;11.070;2023-03-23T12:39:51;2.25;;;1.45;;
16029;SDS011;34770;49.272;11.070;2023-03-23T12:48:07;2.28;;;1.70;;
16029;SDS011;34770;49.272;11.070;2023-03-23T12:50:42;2.13;;;1.88;;
16029;SDS011;34770;49.272;11.070;2023-03-23T12:53:28;3.92;;;2.50;;
16029;SDS011;34770;49.272;11.070;2023-03-23T12:59:06;2.13;;;2.03;;
16029;SDS011;34770;49.272;11.070;2023-03-23T13:01:45;2.50;;;1.98;;
16029;SDS011;34770;49.272;11.070;2023-03-23T13:04:18;2.30;;;1.98;;
16029;SDS011;34770;49.272;11.070;2023-03-23T13:06:48;2.25;;;1.60;;
16029;SDS011;34770;49.272;11.070;2023-03-23T13:09:24;8.10;;;3.92;;
16029;SDS011;34770;49.272;11.070;2023-03-23T13:11:54;3.25;;;2.13;;
16029;SDS011;34770;49.272;11.070;2023-03-23T13:22:54;3.72;;;2.58;;
16029;SDS011;34770;49.272;11.070;2023-03-23T13:28:01;2.08;;;1.67;;
16029;SDS011;34770;49.272;11.070;2023-03-23T13:30:28;2.40;;;2.15;;
16029;SDS011;34770;49.272;11.070;2023-03-23T13:33:04;2.13;;;1.92;;
16029;SDS011;34770;49.272;11.070;2023-03-23T13:35:38;4.03;;;1.90;;
16029;SDS011;34770;49.272;11.070;2023-03-23T13:38:44;1.70;;;1.60;;
16029;SDS011;34770;49.272;11.070;2023-03-23T13:40:58;1.90;;;1.80;;
16029;SDS011;34770;49.272;11.070;2023-03-23T13:43:32;1.88;;;1.77;;
16029;SDS011;34770;49.272;11.070;2023-03-23T13:49:04;3.08;;;1.98;;
16029;SDS011;34770;49.272;11.070;2023-03-23T13:54:31;4.53;;;2.17;;
16029;SDS011;34770;49.272;11.070;2023-03-23T13:57:25;6.55;;;2.30;;
16029;SDS011;34770;49.272;11.070;2023-03-23T14:00:33;2.28;;;2.08;;
16029;SDS011;34770;49.272;11.070;2023-03-23T14:03:12;2.00;;;1.80;;
16029;SDS011;34770;49.272;11.070;2023-03-23T14:08:45;3.33;;;2.70;;
16029;SDS011;34770;49.272;11.070;2023-03-23T14:11:14;2.03;;;1.90;;
16029;SDS011;34770;49.272;11.070;2023-03-23T14:16:16;1.65;;;1.52;;
16029;SDS011;34770;49.272;11.070;2023-03-23T14:18:50;3.00;;;2.70;;
16029;SDS011;34770;49.272;11.070;2023-03-23T14:21:22;2.05;;;1.85;;
16029;SDS011;34770;49.272;11.070;2023-03-23T14:23:55;2.88;;;2.10;;
16029;SDS011;34770;49.272;11.070;2023-03-23T14:26:22;2.92;;;2.58;;
16029;SDS011;34770;49.272;11.070;2023-03-23T14:28:50;2.35;;;1.90;;
16029;SDS011;34770;49.272;11.070;2023-03-23T14:31:20;4.38;;;2.03;;
16029;SDS011;34770;49.272;11.070;2023-03-23T14:33:49;2.30;;;2.10;;
16029;SDS011;34770;49.272;11.070;2023-03-23T14:36:20;3.05;;;2.00;;
16029;SDS011;34770;49.272;11.070;2023-03-23T14:39:01;2.20;;;2.00;;
16029;SDS011;34770;49.272;11.070;2023-03-23T14:41:31;2.55;;;1.90;;
16029;SDS011;34770;49.272;11.070;2023-03-23T14:43:59;2.42;;;2.22;;
16029;SDS011;34770;49.272;11.070;2023-03-23T14:46:27;3.15;;;2.15;;
16029;SDS011;34770;49.272;11.070;2023-03-23T14:48:54;3.22;;;2.35;;
16029;SDS011;34770;49.272;11.070;2023-03-23T14:51:20;2.03;;;1.92;;
16029;SDS011;34770;49.272;11.070;2023-03-23T14:53:46;4.65;;;2.63;;
16029;SDS011;34770;49.272;11.070;2023-03-23T14:56:20;2.40;;;2.20;;
16029;SDS011;34770;49.272;11.070;2023-03-23T14:58:51;2.22;;;1.90;;
16029;SDS011;34770;49.272;11.070;2023-03-23T15:01:18;2.13;;;1.98;;
16029;SDS011;34770;49.272;11.070;2023-03-23T15:06:25;5.18;;;2.80;;
16029;SDS011;34770;49.272;11.070;2023-03-23T15:08:55;3.60;;;2.75;;
16029;SDS011;34770;49.272;11.070;2023-03-23T15:11:35;2.88;;;2.40;;
16029;SDS011;34770;49.272;11.070;2023-03-23T15:14:17;1.90;;;1.80;;
16029;SDS011;34770;49.272;11.070;2023-03-23T15:16:47;2.30;;;1.90;;
16029;SDS011;34770;49.272;11.070;2023-03-23T15:19:21;3.22;;;2.50;;
16029;SDS011;34770;49.272;11.070;2023-03-23T15:26:50;3.38;;;2.10;;
16029;SDS011;34770;49.272;11.070;2023-03-23T15:29:22;2.85;;;2.22;;
16029;SDS011;34770;49.272;11.070;2023-03-23T15:31:52;2.40;;;2.17;;
16029;SDS011;34770;49.272;11.070;2023-03-23T15:34:29;2.17;;;1.98;;
16029;SDS011;34770;49.272;11.070;2023-03-23T15:37:05;2.00;;;1.80;;
16029;SDS011;34770;49.272;11.070;2023-03-23T15:39:46;2.25;;;2.00;;
16029;SDS011;34770;49.272;11.070;2023-03-23T15:42:24;5.53;;;2.35;;
16029;SDS011;34770;49.272;11.070;2023-03-23T15:50:20;3.33;;;1.80;;
16029;SDS011;34770;49.272;11.070;2023-03-23T15:52:59;4.35;;;2.00;;
16029;SDS011;34770;49.272;11.070;2023-03-23T15:55:35;1.95;;;1.70;;
16029;SDS011;34770;49.272;11.070;2023-03-23T15:58:09;1.65;;;1.55;;
16029;SDS011;34770;49.272;11.070;2023-03-23T16:00:36;2.67;;;1.63;;
16029;SDS011;34770;49.272;11.070;2023-03-23T16:03:06;4.40;;;1.67;;
16029;SDS011;34770;49.272;11.070;2023-03-23T16:05:48;1.88;;;1.70;;
16029;SDS011;34770;49.272;11.070;2023-03-23T16:08:14;5.50;;;2.17;;
16029;SDS011;34770;49.272;11.070;2023-03-23T16:10:40;3.80;;;2.35;;
16029;SDS011;34770;49.272;11.070;2023-03-23T16:13:06;7.10;;;3.90;;
16029;SDS011;34770;49.272;11.070;2023-03-23T16:15:31;9.73;;;8.73;;
16029;SDS011;34770;49.272;11.070;2023-03-23T16:17:57;7.32;;;5.70;;
16029;SDS011;34770;49.272;11.070;2023-03-23T16:20:23;4.95;;;4.13;;
16029;SDS011;34770;49.272;11.070;2023-03-23T16:22:49;4.63;;;3.15;;
16029;SDS011;34770;49.272;11.070;2023-03-23T16:25:16;5.70;;;2.17;;
16029;SDS011;34770;49.272;11.070;2023-03-23T16:27:43;7.85;;;2.90;;
16029;SDS011;34770;49.272;11.070;2023-03-23T16:30:15;4.28;;;3.58;;
16029;SDS011;34770;49.272;11.070;2023-03-23T16:32:44;3.47;;;2.80;;
16029;SDS011;34770;49.272;11.070;2023-03-23T16:35:11;4.38;;;3.20;;
16029;SDS011;34770;49.272;11.070;2023-03-23T16:37:37;3.55;;;2.90;;
16029;SDS011;34770;49.272;11.070;2023-03-23T16:40:04;3.97;;;2.42;;
16029;SDS011;34770;49.272;11.070;2023-03-23T16:42:31;3.85;;;2.80;;
16029;SDS011;34770;49.272;11.070;2023-03-23T16:44:56;3.75;;;3.45;;
16029;SDS011;34770;49.272;11.070;2023-03-23T16:47:22;6.07;;;4.07;;
16029;SDS011;34770;49.272;11.070;2023-03-23T16:49:49;5.40;;;4.15;;
16029;SDS011;34770;49.272;11.070;2023-03-23T16:52:16;6.88;;;4.13;;
16029;SDS011;34770;49.272;11.070;2023-03-23T16:54:42;5.38;;;3.90;;
16029;SDS011;34770;49.272;11.070;2023-03-23T16:57:07;5.25;;;3.92;;